Time;durP1;ratioP1;P1;durP2;ratioP2;P2;SDS_P1;SDS_P2;PMS_P1;PMS_P2;Temp;Humidity;BMP_temperature;BMP_pressure;BME280_temperature;BME280_humidity;BME280_pressure;Samples;Min_cycle;Max_cycle;Signal;HPM_P1;HPM_P2
2022/10/03 00:01:34;;;;;;;1.90;1.70;;;14.50;99.90;;;14.92;70.41;99488.38;4971025;28;123699;-71
2022/10/03 00:04:31;;;;;;;3.53;1.80;;;14.50;99.90;;;14.87;70.11;99485.75;4968475;28;121852;-71
2022/10/03 00:07:28;;;;;;;3.33;1.83;;;14.50;99.90;;;14.83;70.25;99495.91;4972944;28;120148;-70
2022/10/03 00:10:08;;;;;;;5.10;2.23;;;14.50;99.90;;;14.83;70.34;99501.47;4965605;28;124080;-70
2022/10/03 00:12:46;;;;;;;2.30;1.60;;;14.40;99.90;;;14.77;70.26;99497.97;4974794;28;123815;-69
2022/10/03 00:15:24;;;;;;;4.03;2.30;;;14.40;99.90;;;14.74;70.50;99508.94;4976308;28;118171;-71
2022/10/03 00:18:17;;;;;;;3.57;1.83;;;14.40;99.90;;;14.68;70.35;99518.59;4973092;28;118754;-70
2022/10/03 00:21:11;;;;;;;3.87;1.90;;;14.30;99.90;;;14.61;70.51;99510.69;4955666;28;123824;-70
2022/10/03 00:23:54;;;;;;;2.50;2.13;;;14.30;99.90;;;14.57;70.57;99520.84;4974580;28;123765;-70
2022/10/03 00:27:00;;;;;;;3.13;2.50;;;14.30;99.90;;;14.50;70.84;99521.25;4977300;28;119051;-70
2022/10/03 00:29:37;;;;;;;3.07;2.50;;;14.20;99.90;;;14.50;70.81;99523.22;4984894;28;118957;-69
2022/10/03 00:32:22;;;;;;;2.33;2.10;;;14.20;99.90;;;14.49;70.88;99533.53;4981400;28;123743;-70
2022/10/03 00:35:14;;;;;;;3.00;2.40;;;14.10;99.90;;;14.48;70.99;99529.13;4973777;28;122927;-70
2022/10/03 00:38:00;;;;;;;3.60;2.50;;;14.10;99.90;;;14.49;70.94;99527.97;4974304;28;119266;-68
2022/10/03 00:41:02;;;;;;;3.50;2.50;;;14.10;99.90;;;14.50;70.84;99537.94;4969653;28;120153;-69
2022/10/03 00:44:12;;;;;;;3.23;2.60;;;14.10;99.90;;;14.51;71.08;99536.81;4974973;28;126741;-70
2022/10/03 00:47:12;;;;;;;3.83;3.10;;;14.10;99.90;;;14.52;71.14;99544.03;4967536;28;123763;-70
2022/10/03 00:50:21;;;;;;;2.60;2.40;;;14.10;99.90;;;14.54;70.87;99552.09;4972111;28;119346;-69
2022/10/03 00:53:39;;;;;;;3.60;2.67;;;14.20;99.90;;;14.53;71.03;99551.25;4969631;28;119008;-70
2022/10/03 00:56:57;;;;;;;4.70;2.70;;;14.20;99.90;;;14.55;70.82;99540.63;4917218;28;123901;-69
2022/10/03 00:59:31;;;;;;;3.87;2.70;;;14.20;99.90;;;14.58;70.96;99544.72;4968992;28;124019;-70
2022/10/03 01:01:58;;;;;;;3.50;3.17;;;14.20;99.90;;;14.61;71.03;99544.06;4976625;28;123046;-70
2022/10/03 01:04:54;;;;;;;2.97;2.67;;;14.30;99.90;;;14.65;70.78;99544.28;4965237;28;119934;-69
2022/10/03 01:08:10;;;;;;;3.87;2.80;;;14.20;99.90;;;14.66;70.77;99543.13;4966593;28;123904;-70
2022/10/03 01:11:25;;;;;;;6.03;3.10;;;14.20;99.90;;;14.67;70.72;99541.97;4980334;28;122560;-70
2022/10/03 01:14:37;;;;;;;2.40;2.03;;;14.30;99.90;;;14.66;70.58;99540.34;4975811;28;119364;-70
2022/10/03 01:17:47;;;;;;;3.50;3.17;;;14.30;99.90;;;14.66;70.69;99538.38;4970435;28;118867;-70
2022/10/03 01:20:34;;;;;;;5.33;2.90;;;14.30;99.90;;;14.68;70.56;99532.50;4970610;28;124277;-69
2022/10/03 01:23:57;;;;;;;2.80;2.50;;;14.30;99.90;;;14.68;70.74;99538.06;4980554;28;124107;-70
2022/10/03 01:26:53;;;;;;;3.70;2.70;;;14.30;99.90;;;14.68;70.47;99538.88;4983696;28;119792;-70
2022/10/03 01:33:02;;;;;;;2.87;2.20;;;14.30;99.90;;;14.69;70.58;99539.69;4971405;28;124346;-70
2022/10/03 01:35:52;;;;;;;3.97;2.87;;;14.30;99.90;;;14.72;70.43;99539.88;4978891;28;123750;-70
2022/10/03 01:38:28;;;;;;;3.30;2.67;;;14.30;99.90;;;14.74;70.40;99545.94;4977052;28;119351;-70
2022/10/03 01:41:34;;;;;;;4.07;2.93;;;14.30;99.90;;;14.75;70.34;99549.56;4969076;28;118688;-70
2022/10/03 01:44:42;;;;;;;3.37;3.07;;;14.30;99.90;;;14.76;70.30;99549.22;4976410;28;124029;-70
2022/10/03 01:47:37;;;;;;;4.43;2.67;;;14.30;99.90;;;14.76;70.32;99554.78;4980173;28;124220;-70
2022/10/03 01:50:57;;;;;;;4.23;3.13;;;14.30;99.90;;;14.74;70.31;99562.63;4967399;28;119651;-70
2022/10/03 01:54:13;;;;;;;6.90;3.37;;;14.30;99.90;;;14.74;70.46;99565.41;4983007;28;119420;-70
2022/10/03 01:57:11;;;;;;;2.67;2.47;;;14.30;99.90;;;14.76;69.92;99573.44;4935271;28;124054;-70
2022/10/03 01:59:59;;;;;;;6.47;3.27;;;14.30;99.90;;;14.77;70.22;99575.88;4940126;28;124229;-70
2022/10/03 02:02:46;;;;;;;3.20;2.90;;;14.30;99.90;;;14.78;70.33;99588.66;4971488;28;119941;-70
2022/10/03 02:05:37;;;;;;;9.67;4.03;;;14.30;99.90;;;14.80;70.11;99586.38;4975795;28;119681;-69
2022/10/03 02:08:32;;;;;;;5.13;3.67;;;14.40;99.90;;;14.81;70.35;99589.97;4973218;28;124027;-70
2022/10/03 02:11:05;;;;;;;5.60;3.60;;;14.40;99.90;;;14.79;70.17;99592.25;4977584;28;123341;-70
2022/10/03 02:13:51;;;;;;;5.30;4.27;;;14.30;99.90;;;14.77;70.20;99592.56;4974449;28;119280;-70
2022/10/03 02:16:57;;;;;;;8.80;4.53;;;14.30;99.90;;;14.74;70.16;99595.19;4968403;28;119076;-69
2022/10/03 02:19:33;;;;;;;4.80;3.97;;;14.30;99.90;;;14.70;70.28;99591.41;4977866;28;124191;-69
2022/10/03 02:22:01;;;;;;;4.27;3.63;;;14.30;99.90;;;14.69;70.40;99596.13;4989669;28;124330;-70
2022/10/03 02:24:48;;;;;;;5.80;4.70;;;14.30;99.90;;;14.69;70.60;99590.56;4987575;28;118096;-70
2022/10/03 02:27:54;;;;;;;6.83;4.90;;;14.30;99.90;;;14.68;70.53;99599.25;4976968;28;119461;-70
2022/10/03 02:30:48;;;;;;;6.63;4.00;;;14.30;99.90;;;14.67;70.53;99592.03;4979056;28;123983;-70
2022/10/03 02:33:30;;;;;;;4.53;3.80;;;14.30;99.90;;;14.65;70.86;99588.78;4983668;28;124371;-70
2022/10/03 02:36:34;;;;;;;6.90;3.70;;;14.30;99.90;;;14.67;70.76;99586.47;4975558;28;119271;-70
2022/10/03 02:39:33;;;;;;;4.80;3.80;;;14.30;99.90;;;14.65;70.63;99589.59;4986574;28;118815;-70
2022/10/03 02:42:30;;;;;;;6.50;4.20;;;14.30;99.90;;;14.69;70.73;99589.75;4984843;28;124508;-70
2022/10/03 02:45:40;;;;;;;5.27;3.73;;;14.30;99.90;;;14.69;70.67;99584.19;4982317;28;124211;-70
2022/10/03 02:48:37;;;;;;;8.50;4.90;;;14.30;99.90;;;14.70;70.54;99597.78;4983653;28;119467;-70
2022/10/03 02:51:29;;;;;;;5.10;3.80;;;14.30;99.90;;;14.70;70.82;99589.44;4978062;28;118943;-70
2022/10/03 02:54:38;;;;;;;5.80;4.33;;;14.30;99.90;;;14.72;70.80;99594.69;4987313;28;126596;-70
2022/10/03 02:57:44;;;;;;;5.87;4.27;;;14.30;99.90;;;14.72;70.43;99578.84;4983443;28;123819;-70
2022/10/03 03:00:21;;;;;;;5.67;4.03;;;14.30;99.90;;;14.74;70.76;99579.31;4985230;28;120184;-70
2022/10/03 03:03:25;;;;;;;7.17;4.60;;;14.30;99.90;;;14.74;70.63;99586.84;4985045;28;119959;-69
2022/10/03 03:06:38;;;;;;;5.00;3.93;;;14.30;99.90;;;14.74;70.71;99593.22;4944664;28;123969;-70
2022/10/03 03:09:24;;;;;;;4.30;3.80;;;14.30;99.90;;;14.76;70.55;99584.56;4965247;28;123923;-69
2022/10/03 03:12:18;;;;;;;4.60;3.83;;;14.30;99.90;;;14.76;70.45;99579.81;4948710;28;118165;-69
2022/10/03 03:15:07;;;;;;;5.13;3.60;;;14.30;99.90;;;14.77;70.46;99580.63;4959603;28;119340;-69
2022/10/03 03:18:05;;;;;;;5.23;4.23;;;14.30;99.90;;;14.77;70.19;99575.06;4946208;28;123886;-69
2022/10/03 03:20:57;;;;;;;8.10;4.10;;;14.30;99.90;;;14.78;70.48;99577.53;4934985;28;123677;-69
2022/10/03 03:24:09;;;;;;;5.60;4.47;;;14.40;99.90;;;14.78;70.48;99577.53;4965192;28;119582;-70
2022/10/03 03:26:53;;;;;;;5.50;3.57;;;14.40;99.90;;;14.80;70.33;99572.47;4920155;28;119942;-70
2022/10/03 03:29:52;;;;;;;7.90;4.47;;;14.30;99.90;;;14.82;70.39;99576.88;4953597;28;124092;-70
2022/10/03 03:32:46;;;;;;;5.73;3.40;;;14.40;99.90;;;14.83;70.16;99576.59;4923673;28;123667;-70
2022/10/03 03:35:45;;;;;;;4.57;3.90;;;14.40;99.90;;;14.82;70.62;99576.88;4966084;28;119438;-70
2022/10/03 03:38:37;;;;;;;5.87;4.07;;;14.40;99.90;;;14.82;70.29;99565.75;4948542;28;118203;-70
2022/10/03 03:41:42;;;;;;;5.20;4.10;;;14.40;99.90;;;14.80;70.27;99571.63;4954703;28;124033;-70
2022/10/03 03:44:30;;;;;;;6.53;4.57;;;14.40;99.90;;;14.81;70.36;99578.84;4969873;28;123272;-70
2022/10/03 03:47:26;;;;;;;9.83;4.47;;;14.30;99.90;;;14.79;70.20;99586.69;4988282;28;118566;-70
2022/10/03 03:50:15;;;;;;;8.73;4.10;;;14.40;99.90;;;14.79;70.27;99581.13;4975516;28;119185;-70
2022/10/03 03:52:56;;;;;;;7.10;4.13;;;14.30;99.90;;;14.79;70.08;99583.91;4972956;28;124089;-70
2022/10/03 03:56:18;;;;;;;4.43;3.77;;;14.30;99.90;;;14.78;70.02;99576.72;4968307;28;123509;-70
2022/10/03 03:59:04;;;;;;;5.70;4.40;;;14.30;99.90;;;14.77;70.12;99586.19;4980280;28;119923;-70
2022/10/03 04:01:43;;;;;;;5.00;3.80;;;14.30;99.90;;;14.78;70.21;99587.84;4972643;28;119922;-70
2022/10/03 04:05:02;;;;;;;4.80;3.70;;;14.30;99.90;;;14.78;69.95;99585.06;4985532;28;123692;-69
2022/10/03 04:07:55;;;;;;;6.13;3.80;;;14.30;99.90;;;14.78;70.06;99593.41;4976602;28;123526;-70
2022/10/03 04:10:41;;;;;;;6.53;3.77;;;14.30;99.90;;;14.78;70.15;99593.41;4985115;28;119342;-69
2022/10/03 04:13:55;;;;;;;5.57;3.80;;;14.30;99.90;;;14.78;70.17;99596.19;4986113;28;119162;-70
2022/10/03 04:20:12;;;;;;;6.23;4.30;;;14.30;99.90;;;14.77;69.99;99597.31;4976585;28;124789;-71
2022/10/03 04:23:15;;;;;;;4.87;4.37;;;14.30;99.90;;;14.75;70.02;99594.88;4970665;28;119379;-70
2022/10/03 04:26:17;;;;;;;6.90;4.17;;;14.30;99.90;;;14.71;70.03;99593.84;4973875;28;118906;-71
2022/10/03 04:29:15;;;;;;;5.03;4.03;;;14.30;99.90;;;14.69;69.83;99598.09;4982104;28;123752;-70
2022/10/03 04:32:07;;;;;;;5.50;3.90;;;14.30;99.90;;;14.69;70.05;99598.09;4972508;28;123555;-70
2022/10/03 04:34:44;;;;;;;6.87;4.03;;;14.30;99.90;;;14.70;69.95;99599.75;4980759;28;119370;-70
2022/10/03 04:37:31;;;;;;;5.20;3.80;;;14.30;99.90;;;14.72;69.82;99598.31;4985205;28;118777;-70
2022/10/03 04:40:16;;;;;;;4.80;3.60;;;14.30;99.90;;;14.72;69.96;99605.81;4984444;28;124019;-70
2022/10/03 04:43:52;;;;;;;4.93;4.10;;;14.30;99.90;;;14.70;70.00;99603.34;4983881;28;123936;-70
2022/10/03 04:46:38;;;;;;;5.20;3.70;;;14.30;99.90;;;14.71;69.83;99601.38;4938641;28;119332;-70
2022/10/03 04:49:17;;;;;;;6.10;4.23;;;14.30;99.90;;;14.73;69.76;99607.47;4962084;28;119035;-70
2022/10/03 04:52:17;;;;;;;6.87;4.03;;;14.30;99.90;;;14.72;69.70;99605.81;4968787;28;124486;-70
2022/10/03 04:55:03;;;;;;;3.73;3.40;;;14.30;99.90;;;14.73;69.71;99616.63;4970013;28;123832;-69
2022/10/03 04:58:12;;;;;;;4.60;3.70;;;14.30;99.90;;;14.73;69.57;99615.81;4985132;28;119503;-70
2022/10/03 05:01:11;;;;;;;4.30;3.33;;;14.30;99.90;;;14.73;69.66;99613.03;4974865;28;120190;-70
2022/10/03 05:04:03;;;;;;;5.37;3.17;;;14.30;99.90;;;14.73;69.72;99618.59;4971701;28;124094;-70
2022/10/03 05:07:07;;;;;;;5.17;4.00;;;14.30;99.90;;;14.73;69.72;99622.19;4978432;28;123659;-70
2022/10/03 05:09:58;;;;;;;6.13;4.30;;;14.30;99.90;;;14.73;69.68;99624.16;4979500;28;120641;-70
2022/10/03 05:12:51;;;;;;;4.50;3.60;;;14.30;99.90;;;14.72;69.50;99620.56;4975180;28;118870;-70
2022/10/03 05:15:28;;;;;;;8.30;4.37;;;14.30;99.90;;;14.74;69.38;99628.56;4981775;28;123982;-70
2022/10/03 05:18:07;;;;;;;5.73;4.00;;;14.30;99.90;;;14.74;69.41;99623.81;4972139;28;123932;-70
2022/10/03 05:20:58;;;;;;;4.70;4.07;;;14.30;99.90;;;14.74;69.38;99625.78;4986396;28;118945;-70
2022/10/03 05:23:47;;;;;;;4.40;3.60;;;14.30;99.90;;;14.73;69.46;99626.94;4984004;28;119018;-70
2022/10/03 05:26:57;;;;;;;6.77;3.93;;;14.30;99.90;;;14.70;69.27;99622.84;4985085;28;123819;-70
2022/10/03 05:30:03;;;;;;;5.73;3.93;;;14.30;99.90;;;14.70;69.46;99625.63;4978647;28;123768;-70
2022/10/03 05:32:58;;;;;;;5.87;3.33;;;14.20;99.90;;;14.71;69.35;99632.00;4963282;28;119221;-69
2022/10/03 05:35:33;;;;;;;6.40;4.10;;;14.20;99.90;;;14.73;69.46;99640.84;4980739;28;118342;-70
2022/10/03 05:38:33;;;;;;;5.77;4.47;;;14.30;99.90;;;14.71;69.35;99638.38;4979263;28;123831;-70
2022/10/03 05:41:10;;;;;;;6.53;5.17;;;14.30;99.90;;;14.71;69.31;99643.13;4983740;28;123880;-70
2022/10/03 05:44:15;;;;;;;8.43;5.10;;;14.80;99.90;;;14.69;69.35;99646.19;4974588;28;119278;-70
2022/10/03 05:47:44;;;;;;;10.43;6.00;;;14.30;99.90;;;14.65;69.20;99661.09;4983987;28;120074;-70
2022/10/03 05:50:37;;;;;;;7.30;5.20;;;14.30;99.90;;;14.62;69.25;99661.72;4945811;28;123979;-70
2022/10/03 05:53:46;;;;;;;9.63;5.83;;;14.20;99.90;;;14.57;69.34;99666.28;4983419;28;123974;-70
2022/10/03 05:56:20;;;;;;;9.87;6.50;;;14.20;99.90;;;14.56;69.35;99675.75;4972687;28;119389;-70
2022/10/03 05:59:33;;;;;;;11.00;7.80;;;14.20;99.90;;;14.52;69.56;99685.88;4980760;28;120996;-70
2022/10/03 06:02:38;;;;;;;12.20;7.00;;;14.10;99.90;;;14.49;69.50;99682.88;4981074;28;124439;-70
2022/10/03 06:05:55;;;;;;;12.40;7.50;;;14.10;99.90;;;14.44;69.80;99689.38;4979040;28;123610;-70
2022/10/03 06:08:51;;;;;;;12.57;8.10;;;14.00;99.90;;;14.40;69.89;99679.19;4980609;28;120535;-70
2022/10/03 06:11:37;;;;;;;14.37;8.97;;;14.00;99.90;;;14.39;69.75;99675.59;4977615;28;119167;-71
2022/10/03 06:14:22;;;;;;;11.00;7.63;;;14.00;99.90;;;14.40;69.91;99674.47;4979636;28;124419;-73
2022/10/03 06:17:32;;;;;;;16.10;8.33;;;14.00;99.90;;;14.40;69.75;99687.53;4976257;28;97318;-71
2022/10/03 06:20:45;;;;;;;11.47;7.80;;;14.00;99.90;;;14.37;69.82;99683.44;4974150;28;121496;-70
2022/10/03 06:23:20;;;;;;;12.40;7.30;;;14.00;99.90;;;14.37;69.82;99683.44;4973217;28;119942;-70
2022/10/03 06:26:28;;;;;;;13.07;7.67;;;14.00;99.90;;;14.37;69.94;99691.78;4974314;28;123872;-68
2022/10/03 06:29:27;;;;;;;12.10;7.70;;;14.00;99.90;;;14.38;69.66;99692.63;4972566;28;124054;-70
2022/10/03 06:32:26;;;;;;;14.53;8.27;;;14.00;99.90;;;14.35;69.40;99696.84;4977924;28;120531;-69
2022/10/03 06:35:59;;;;;;;14.30;8.10;;;13.90;99.90;;;14.30;69.22;99689.44;4976932;28;119051;-71
2022/10/03 06:38:39;;;;;;;12.37;7.00;;;13.90;99.90;;;14.33;69.33;99704.69;4979534;28;122361;-69
2022/10/03 06:41:42;;;;;;;10.50;6.63;;;13.90;99.90;;;14.36;69.26;99704.84;4977182;28;123944;-68
2022/10/03 06:44:22;;;;;;;16.10;8.63;;;13.90;99.90;;;14.41;69.10;99706.69;4967974;28;119143;-69
2022/10/03 06:47:37;;;;;;;13.80;8.03;;;14.00;99.90;;;14.43;69.06;99709.19;4973127;28;118633;-70
2022/10/03 06:50:21;;;;;;;10.67;7.30;;;14.00;99.90;;;14.41;69.15;99715.03;4961098;28;123965;-68
2022/10/03 06:53:35;;;;;;;12.23;7.50;;;14.00;99.90;;;14.42;69.15;99724.19;4968833;28;123850;-67
2022/10/03 06:56:30;;;;;;;10.23;7.57;;;14.00;99.90;;;14.44;69.12;99717.19;4966976;28;120755;-68
2022/10/03 06:59:12;;;;;;;13.77;7.83;;;14.10;99.90;;;14.46;69.21;99719.66;4965715;28;120427;-69
2022/10/03 07:01:51;;;;;;;10.93;7.17;;;14.00;99.90;;;14.49;68.95;99713.47;4959604;28;122811;-70
2022/10/03 07:04:29;;;;;;;13.87;8.10;;;14.00;99.90;;;14.52;69.12;99713.69;4973012;28;122828;-70
2022/10/03 07:07:27;;;;;;;9.60;7.20;;;14.10;99.90;;;14.51;69.06;99717.56;4978218;28;119081;-69
2022/10/03 07:10:22;;;;;;;17.80;9.83;;;14.10;99.90;;;14.54;68.79;99724.50;4980125;28;119396;-69
2022/10/03 07:13:09;;;;;;;12.73;8.03;;;14.10;99.90;;;14.52;68.72;99730.34;4974616;28;124857;-69
2022/10/03 07:15:57;;;;;;;13.40;8.70;;;14.10;99.90;;;14.52;68.74;99735.91;4974858;28;123700;-70
2022/10/03 07:19:01;;;;;;;9.97;7.33;;;14.10;99.90;;;14.54;68.83;99741.19;4985662;28;118523;-69
2022/10/03 07:22:01;;;;;;;20.13;8.30;;;14.10;99.90;;;14.56;68.63;99736.09;4982488;28;119033;-69
2022/10/03 07:24:59;;;;;;;16.00;8.80;;;14.10;99.90;;;14.57;68.38;99737.75;4973445;28;123769;-69
2022/10/03 07:27:50;;;;;;;15.23;9.07;;;14.10;99.90;;;14.56;68.44;99748.06;4957858;28;122704;-70
2022/10/03 07:30:25;;;;;;;13.47;9.23;;;14.10;99.80;;;14.56;68.47;99753.63;4982443;28;119137;-69
2022/10/03 07:33:50;;;;;;;14.43;9.27;;;14.20;99.90;;;14.56;68.53;99759.19;4983290;28;118865;-69
2022/10/03 07:39:36;;;;;;;11.50;7.97;;;13.20;99.30;;;14.56;68.15;99750.84;4977955;28;124357;-69
2022/10/03 07:42:38;;;;;;;13.63;8.50;;;14.10;99.70;;;14.58;68.19;99750.53;4973528;28;118606;-69
2022/10/03 07:45:33;;;;;;;13.93;7.57;;;14.10;99.70;;;14.60;68.25;99753.81;4972030;28;119095;-68
2022/10/03 07:48:21;;;;;;;14.90;8.73;;;14.10;99.70;;;14.62;68.06;99747.94;4976952;28;124074;-69
2022/10/03 07:51:13;;;;;;;14.07;9.37;;;14.10;99.60;;;14.64;68.18;99745.66;4968156;28;124269;-69
2022/10/03 07:54:01;;;;;;;13.73;8.87;;;14.10;99.60;;;14.66;68.13;99752.53;4974037;28;120082;-70
2022/10/03 07:56:40;;;;;;;10.83;8.00;;;14.10;99.60;;;14.67;67.78;99754.19;4980669;28;119111;-69
2022/10/03 07:59:30;;;;;;;15.47;8.43;;;14.20;99.60;;;14.68;67.94;99750.28;4985937;28;123388;-69
2022/10/03 08:02:21;;;;;;;10.00;7.77;;;14.20;99.50;;;14.68;67.86;99752.25;4967778;28;123870;-69
2022/10/03 08:05:06;;;;;;;11.73;7.67;;;14.20;99.40;;;14.69;67.59;99757.47;4973893;28;119370;-69
2022/10/03 08:08:27;;;;;;;14.60;8.30;;;14.20;99.40;;;14.71;67.94;99748.81;4979684;28;118896;-69
2022/10/03 08:11:32;;;;;;;12.90;8.17;;;14.30;99.40;;;14.73;67.63;99757.69;4974618;28;124451;-69
2022/10/03 08:14:31;;;;;;;12.27;7.33;;;14.30;99.40;;;14.73;67.71;99760.47;4979584;28;123610;-69
2022/10/03 08:17:16;;;;;;;13.83;7.90;;;14.30;99.30;;;14.77;67.67;99767.00;4970099;28;119424;-69
2022/10/03 08:20:34;;;;;;;8.80;6.20;;;14.30;99.30;;;14.78;67.30;99766.72;4982737;28;119668;-70
2022/10/03 08:23:19;;;;;;;12.17;7.20;;;14.30;99.40;;;14.80;67.30;99774.72;4966033;28;124333;-69
2022/10/03 08:26:08;;;;;;;13.30;7.20;;;14.30;99.30;;;14.79;67.42;99781.44;4974006;28;123965;-71
2022/10/03 08:29:22;;;;;;;8.80;6.53;;;14.30;99.30;;;14.77;67.48;99776.19;4981050;28;120383;-70
2022/10/03 08:32:26;;;;;;;11.67;7.00;;;14.30;99.20;;;14.79;67.55;99779.47;4983240;28;119024;-69
2022/10/03 08:35:02;;;;;;;12.00;6.73;;;14.30;99.30;;;14.81;67.44;99773.59;4980071;28;125031;-70
2022/10/03 08:38:09;;;;;;;12.50;6.93;;;14.40;99.30;;;14.82;67.60;99775.25;4953811;28;122693;-70
2022/10/03 08:41:13;;;;;;;10.10;6.47;;;14.40;99.30;;;14.83;67.76;99771.34;4982145;28;119408;-69
2022/10/03 08:44:13;;;;;;;9.00;6.30;;;14.40;99.20;;;14.85;67.41;99773.78;4983130;28;117610;-69
2022/10/03 08:47:08;;;;;;;11.00;6.33;;;14.40;99.20;;;14.86;66.86;99776.25;4979389;28;124518;-70
2022/10/03 08:50:06;;;;;;;12.07;7.03;;;14.40;99.10;;;14.84;67.15;99778.53;4972650;28;123777;-71
2022/10/03 08:53:15;;;;;;;10.40;7.47;;;14.40;99.00;;;14.83;66.87;99778.84;4969362;28;119000;-70
2022/10/03 08:55:57;;;;;;;14.30;6.60;;;14.40;98.90;;;14.81;66.78;99768.03;4967584;28;118997;-69
2022/10/03 08:59:07;;;;;;;12.27;6.83;;;14.40;98.80;;;14.77;66.53;99776.19;4969485;28;123909;-69
2022/10/03 09:02:13;;;;;;;11.73;6.27;;;14.40;98.60;;;14.75;66.71;99780.44;4974701;28;122845;-69
2022/10/03 09:05:10;;;;;;;11.00;6.07;;;14.30;98.50;;;14.77;66.70;99776.19;4981416;28;119758;-69
2022/10/03 09:08:16;;;;;;;8.90;6.00;;;14.40;98.60;;;14.80;66.46;99777.50;4979178;28;119064;-69
2022/10/03 09:11:13;;;;;;;12.70;6.00;;;14.40;98.50;;;14.86;66.39;99772.66;4982583;28;124572;-69
2022/10/03 09:14:14;;;;;;;13.93;5.80;;;14.40;98.50;;;14.92;66.29;99772.19;4972815;28;124336;-69
2022/10/03 09:17:22;;;;;;;9.93;6.13;;;14.40;98.60;;;14.94;65.99;99769.13;4976386;28;119405;-69
2022/10/03 09:20:37;;;;;;;12.17;6.00;;;14.40;98.40;;;14.96;65.99;99769.59;4956676;28;118713;-70
2022/10/03 09:23:27;;;;;;;11.90;5.73;;;14.40;98.50;;;15.02;65.85;99766.38;4964304;28;124187;-70
2022/10/03 09:26:29;;;;;;;12.97;5.20;;;14.50;98.50;;;15.06;65.99;99769.34;4968233;28;123721;-69
2022/10/03 09:29:18;;;;;;;9.17;5.97;;;14.50;98.30;;;15.07;65.21;99770.16;4957199;28;118673;-70
2022/10/03 09:31:57;;;;;;;13.07;5.30;;;14.90;98.20;;;15.10;64.64;99763.94;4972788;28;118929;-69
2022/10/03 09:35:11;;;;;;;8.43;5.17;;;14.60;97.80;;;15.12;64.51;99770.84;4973352;28;123546;-70
2022/10/03 09:38:14;;;;;;;7.60;4.93;;;14.60;97.60;;;15.16;64.20;99760.72;4980055;28;125965;-70
2022/10/03 09:41:14;;;;;;;16.10;4.90;;;14.70;97.50;;;15.22;64.01;99761.41;4979759;28;119175;-70
2022/10/03 09:43:53;;;;;;;14.63;4.97;;;14.70;97.30;;;15.24;63.40;99757.16;4973461;28;118007;-69
2022/10/03 09:47:26;;;;;;;12.67;4.90;;;14.70;97.20;;;15.26;63.56;99759.63;4978851;28;124106;-69
2022/10/03 09:50:45;;;;;;;12.83;4.60;;;14.80;97.00;;;15.32;63.36;99747.22;4980368;28;124275;-69
2022/10/03 09:53:47;;;;;;;6.90;3.90;;;14.80;96.90;;;15.40;63.18;99753.97;4979831;28;120699;-70
2022/10/03 09:56:32;;;;;;;8.53;4.13;;;14.90;96.80;;;15.48;62.29;99747.59;4981026;28;118277;-69
2022/10/03 09:59:20;;;;;;;11.00;4.93;;;15.00;96.50;;;15.56;61.87;99751.56;4973941;28;124202;-69
2022/10/03 10:02:47;;;;;;;5.57;3.50;;;15.00;96.20;;;15.61;61.62;99745.84;4978961;28;124376;-69
2022/10/03 10:05:57;;;;;;;8.37;4.00;;;15.10;96.10;;;15.63;60.57;99741.56;4970934;28;119272;-68
2022/10/03 10:08:59;;;;;;;11.33;4.47;;;15.10;95.40;;;15.66;60.34;99742.88;4984612;28;118523;-68
2022/10/03 10:12:09;;;;;;;7.97;3.80;;;15.20;95.20;;;15.73;59.71;99746.06;4975380;28;123681;-69
2022/10/03 10:15:01;;;;;;;5.83;3.57;;;15.20;95.10;;;15.83;59.46;99759.69;4974570;28;124034;-70
2022/10/03 10:17:58;;;;;;;6.93;3.90;;;15.30;94.90;;;15.86;59.15;99759.06;4970195;28;119383;-68
2022/10/03 10:21:35;;;;;;;6.93;3.50;;;15.40;94.70;;;15.88;59.09;99756.78;4983668;28;118604;-75
2022/10/03 10:24:58;;;;;;;5.60;3.60;;;15.40;94.50;;;15.92;58.89;99753.31;4962140;28;123852;-67
2022/10/03 10:28:01;;;;;;;6.93;3.70;;;15.40;94.30;;;15.93;58.42;99757.75;4970839;28;125571;-68
2022/10/03 10:31:04;;;;;;;6.20;3.20;;;15.50;94.10;;;15.98;58.29;99757.59;4972851;28;119339;-68
2022/10/03 10:34:00;;;;;;;7.23;3.27;;;15.50;94.00;;;16.06;58.01;99752.03;4962911;28;119054;-71
2022/10/03 10:36:49;;;;;;;4.90;2.97;;;15.60;93.90;;;16.16;57.65;99766.81;4968843;28;123637;-69
2022/10/03 10:40:16;;;;;;;9.40;3.37;;;15.60;93.80;;;16.23;57.73;99765.19;4973019;28;124216;-68
2022/10/03 10:43:42;;;;;;;6.87;3.50;;;15.70;93.60;;;16.31;57.50;99764.38;4978587;28;119352;-70
2022/10/03 10:46:50;;;;;;;4.50;3.10;;;15.80;93.60;;;16.41;57.26;99774.38;4985744;28;118397;-70
2022/10/03 10:49:56;;;;;;;7.70;3.17;;;15.90;93.50;;;16.47;56.65;99770.28;4985833;28;123882;-69
2022/10/03 10:52:43;;;;;;;4.80;2.90;;;15.90;93.20;;;16.53;56.55;99763.38;4972446;28;124013;-68
2022/10/03 10:55:48;;;;;;;6.43;3.20;;;15.90;93.30;;;16.61;56.51;99763.72;4979725;28;120185;-68
2022/10/03 10:59:11;;;;;;;9.07;3.87;;;16.10;93.00;;;16.63;55.97;99772.56;4976847;28;120344;-69
2022/10/03 11:02:08;;;;;;;12.13;4.00;;;16.10;92.80;;;16.62;55.87;99759.78;4978277;28;124528;-68
2022/10/03 11:04:49;;;;;;;9.87;3.73;;;16.10;92.70;;;16.64;55.65;99763.88;4976297;28;123713;-69
2022/10/03 11:07:59;;;;;;;5.97;3.80;;;16.10;92.60;;;16.63;55.61;99755.81;4981131;28;118942;-69
2022/10/03 11:11:24;;;;;;;5.63;2.90;;;16.20;92.40;;;16.65;56.03;99754.34;4978934;28;119076;-70
2022/10/03 11:14:16;;;;;;;6.50;3.30;;;16.20;92.50;;;16.76;55.58;99744.50;4945817;28;123794;-68
2022/10/03 11:17:08;;;;;;;4.77;3.07;;;16.20;92.50;;;16.82;55.51;99738.75;4968317;28;124272;-69
2022/10/03 11:20:50;;;;;;;6.43;3.80;;;16.30;92.50;;;16.90;55.51;99735.13;4972978;28;119099;-69
2022/10/03 11:24:14;;;;;;;6.70;3.37;;;16.40;92.40;;;16.97;55.54;99733.47;4985998;28;118881;-68
2022/10/03 11:27:28;;;;;;;6.90;3.80;;;16.50;92.40;;;17.07;55.54;99749.06;4976406;28;123210;-68
2022/10/03 11:30:13;;;;;;;7.10;3.10;;;16.50;92.40;;;17.14;54.80;99748.53;4980453;28;123879;-68
2022/10/03 11:33:10;;;;;;;9.20;4.00;;;16.60;92.20;;;17.13;54.66;99744.94;4966073;28;119317;-68
2022/10/03 11:36:18;;;;;;;7.00;3.20;;;16.60;92.00;;;17.13;54.75;99744.94;4977777;28;119122;-69
2022/10/03 11:39:04;;;;;;;12.37;3.80;;;16.60;91.80;;;17.29;54.34;99744.38;4974412;28;124103;-68
2022/10/03 11:42:07;;;;;;;5.73;2.97;;;16.70;91.90;;;17.48;54.12;99742.00;4969132;28;123699;-69
2022/10/03 11:44:45;;;;;;;5.17;3.50;;;16.90;91.80;;;17.69;53.12;99746.84;4983412;28;119028;-69
2022/10/03 11:47:40;;;;;;;5.20;3.30;;;17.00;91.60;;;17.77;51.91;99743.19;4988192;28;118266;-69
2022/10/03 11:50:23;;;;;;;11.53;3.43;;;17.10;90.50;;;17.87;52.10;99732.47;4998576;28;123795;-67
2022/10/03 11:53:26;;;;;;;6.90;2.80;;;17.20;90.80;;;17.97;52.04;99736.00;4998160;28;123897;-67
2022/10/03 11:56:38;;;;;;;5.73;2.97;;;17.30;90.70;;;18.06;51.54;99737.59;4994585;28;118948;-67
2022/10/03 11:59:46;;;;;;;6.30;3.40;;;17.40;90.30;;;18.21;50.13;99730.56;4996582;28;119707;-67
2022/10/03 12:02:16;;;;;;;6.33;2.83;;;17.60;89.30;;;18.39;49.81;99725.66;4921037;28;124174;-67
2022/10/03 12:05:11;;;;;;;5.80;2.70;;;17.70;89.00;;;18.62;49.75;99722.50;4922010;28;123557;-67
2022/10/03 12:10:58;;;;;;;4.90;2.53;;;17.20;86.70;;;19.02;47.78;99725.59;4988555;28;119419;-67
2022/10/03 12:14:02;;;;;;;3.73;2.60;;;18.30;86.30;;;19.20;47.76;99721.41;4979887;28;124282;-68
2022/10/03 12:17:07;;;;;;;5.30;2.63;;;18.50;86.20;;;19.35;47.85;99717.13;4976801;28;122856;-69
2022/10/03 12:20:17;;;;;;;8.23;2.57;;;18.60;86.40;;;19.40;47.66;99708.47;4968668;28;119804;-68
2022/10/03 12:23:11;;;;;;;8.23;3.17;;;18.80;85.40;;;19.29;46.74;99715.72;4967162;28;117714;-67
2022/10/03 12:25:41;;;;;;;3.80;2.73;;;18.70;83.70;;;19.22;46.97;99718.28;4951514;28;123712;-68
2022/10/03 12:28:23;;;;;;;8.27;2.67;;;18.70;84.10;;;19.22;46.70;99709.88;4979897;28;125755;-75